sensor_id;sensor_type;location;lat;lon;timestamp;temperature;humidity
38325;DHT22;24126;52.672;13.622;2024-03-08T00:00:15;7.00;58.30
38325;DHT22;24126;52.672;13.622;2024-03-08T00:02:44;6.90;58.30
38325;DHT22;24126;52.672;13.622;2024-03-08T00:05:12;7.00;58.40
38325;DHT22;24126;52.672;13.622;2024-03-08T00:07:39;6.90;58.50
38325;DHT22;24126;52.672;13.622;2024-03-08T00:10:07;6.90;58.60
38325;DHT22;24126;52.672;13.622;2024-03-08T00:12:40;6.90;58.70
38325;DHT22;24126;52.672;13.622;2024-03-08T00:15:08;6.80;58.80
38325;DHT22;24126;52.672;13.622;2024-03-08T00:17:36;6.80;58.80
38325;DHT22;24126;52.672;13.622;2024-03-08T00:20:03;6.70;59.00
38325;DHT22;24126;52.672;13.622;2024-03-08T00:22:34;6.70;59.00
38325;DHT22;24126;52.672;13.622;2024-03-08T00:25:02;6.70;59.10
38325;DHT22;24126;52.672;13.622;2024-03-08T00:27:29;6.70;59.10
38325;DHT22;24126;52.672;13.622;2024-03-08T00:29:57;6.70;59.20
38325;DHT22;24126;52.672;13.622;2024-03-08T00:32:24;6.70;59.30
38325;DHT22;24126;52.672;13.622;2024-03-08T00:34:51;6.60;59.20
38325;DHT22;24126;52.672;13.622;2024-03-08T00:37:18;6.60;59.30
38325;DHT22;24126;52.672;13.622;2024-03-08T00:39:45;6.60;59.40
38325;DHT22;24126;52.672;13.622;2024-03-08T00:42:12;6.60;59.40
38325;DHT22;24126;52.672;13.622;2024-03-08T00:44:40;6.60;59.40
38325;DHT22;24126;52.672;13.622;2024-03-08T00:47:07;6.50;59.30
38325;DHT22;24126;52.672;13.622;2024-03-08T00:49:34;6.50;59.50
38325;DHT22;24126;52.672;13.622;2024-03-08T00:52:02;6.50;60.10
38325;DHT22;24126;52.672;13.622;2024-03-08T00:54:29;6.40;59.60
38325;DHT22;24126;52.672;13.622;2024-03-08T00:56:56;6.40;59.60
38325;DHT22;24126;52.672;13.622;2024-03-08T00:59:23;6.30;59.60
38325;DHT22;24126;52.672;13.622;2024-03-08T01:01:50;6.30;59.70
38325;DHT22;24126;52.672;13.622;2024-03-08T01:04:17;6.30;59.80
38325;DHT22;24126;52.672;13.622;2024-03-08T01:06:46;6.30;59.90
38325;DHT22;24126;52.672;13.622;2024-03-08T01:09:13;6.30;60.00
38325;DHT22;24126;52.672;13.622;2024-03-08T01:11:41;6.20;60.00
38325;DHT22;24126;52.672;13.622;2024-03-08T01:14:09;6.20;60.00
38325;DHT22;24126;52.672;13.622;2024-03-08T01:16:36;6.20;60.00
38325;DHT22;24126;52.672;13.622;2024-03-08T01:19:03;6.20;60.20
38325;DHT22;24126;52.672;13.622;2024-03-08T01:21:30;6.10;60.10
38325;DHT22;24126;52.672;13.622;2024-03-08T01:23:57;6.10;60.30
38325;DHT22;24126;52.672;13.622;2024-03-08T01:26:24;6.10;60.30
38325;DHT22;24126;52.672;13.622;2024-03-08T01:28:51;6.10;60.40
38325;DHT22;24126;52.672;13.622;2024-03-08T01:31:18;6.00;60.30
38325;DHT22;24126;52.672;13.622;2024-03-08T01:33:45;6.00;60.50
38325;DHT22;24126;52.672;13.622;2024-03-08T01:36:12;6.00;60.50
38325;DHT22;24126;52.672;13.622;2024-03-08T01:38:42;6.00;60.60
38325;DHT22;24126;52.672;13.622;2024-03-08T01:41:09;6.00;60.70
38325;DHT22;24126;52.672;13.622;2024-03-08T01:43:36;5.90;60.70
38325;DHT22;24126;52.672;13.622;2024-03-08T01:46:03;6.00;60.70
38325;DHT22;24126;52.672;13.622;2024-03-08T01:48:30;6.00;60.80
38325;DHT22;24126;52.672;13.622;2024-03-08T01:50:58;5.90;60.90
38325;DHT22;24126;52.672;13.622;2024-03-08T01:53:29;5.90;60.90
38325;DHT22;24126;52.672;13.622;2024-03-08T01:55:57;5.90;60.90
38325;DHT22;24126;52.672;13.622;2024-03-08T01:58:26;5.90;61.00
38325;DHT22;24126;52.672;13.622;2024-03-08T02:00:54;5.90;61.10
38325;DHT22;24126;52.672;13.622;2024-03-08T02:03:21;5.90;61.20
38325;DHT22;24126;52.672;13.622;2024-03-08T02:05:48;5.90;61.30
38325;DHT22;24126;52.672;13.622;2024-03-08T02:08:15;5.80;61.30
38325;DHT22;24126;52.672;13.622;2024-03-08T02:10:46;5.80;61.50
38325;DHT22;24126;52.672;13.622;2024-03-08T02:13:13;5.80;61.40
38325;DHT22;24126;52.672;13.622;2024-03-08T02:15:56;5.80;62.10
38325;DHT22;24126;52.672;13.622;2024-03-08T02:18:25;5.80;61.60
38325;DHT22;24126;52.672;13.622;2024-03-08T02:20:56;5.80;61.70
38325;DHT22;24126;52.672;13.622;2024-03-08T02:23:23;5.80;61.70
38325;DHT22;24126;52.672;13.622;2024-03-08T02:25:50;5.70;61.60
38325;DHT22;24126;52.672;13.622;2024-03-08T02:28:18;5.80;61.70
38325;DHT22;24126;52.672;13.622;2024-03-08T02:30:49;5.70;61.70
38325;DHT22;24126;52.672;13.622;2024-03-08T02:33:16;5.70;61.80
38325;DHT22;24126;52.672;13.622;2024-03-08T02:35:44;5.70;62.10
38325;DHT22;24126;52.672;13.622;2024-03-08T02:38:15;5.60;62.20
38325;DHT22;24126;52.672;13.622;2024-03-08T02:40:43;5.60;62.20
38325;DHT22;24126;52.672;13.622;2024-03-08T02:43:10;5.70;62.10
38325;DHT22;24126;52.672;13.622;2024-03-08T02:45:38;5.70;62.20
38325;DHT22;24126;52.672;13.622;2024-03-08T02:48:05;5.70;62.10
38325;DHT22;24126;52.672;13.622;2024-03-08T02:50:33;5.70;62.20
38325;DHT22;24126;52.672;13.622;2024-03-08T02:53:02;5.60;62.20
38325;DHT22;24126;52.672;13.622;2024-03-08T02:55:29;5.60;62.20
38325;DHT22;24126;52.672;13.622;2024-03-08T02:57:56;5.60;62.30
38325;DHT22;24126;52.672;13.622;2024-03-08T03:00:24;5.70;62.40
38325;DHT22;24126;52.672;13.622;2024-03-08T03:02:52;5.60;62.40
38325;DHT22;24126;52.672;13.622;2024-03-08T03:05:23;5.60;62.40
38325;DHT22;24126;52.672;13.622;2024-03-08T03:07:50;5.70;62.40
38325;DHT22;24126;52.672;13.622;2024-03-08T03:10:18;5.70;62.40
38325;DHT22;24126;52.672;13.622;2024-03-08T03:12:48;5.60;62.40
38325;DHT22;24126;52.672;13.622;2024-03-08T03:15:15;5.60;62.40
38325;DHT22;24126;52.672;13.622;2024-03-08T03:17:47;5.60;62.50
38325;DHT22;24126;52.672;13.622;2024-03-08T03:20:14;5.60;62.70
38325;DHT22;24126;52.672;13.622;2024-03-08T03:22:49;5.60;62.60
38325;DHT22;24126;52.672;13.622;2024-03-08T03:25:18;5.50;63.20
38325;DHT22;24126;52.672;13.622;2024-03-08T03:27:53;5.50;62.50
38325;DHT22;24126;52.672;13.622;2024-03-08T03:30:25;5.50;62.60
38325;DHT22;24126;52.672;13.622;2024-03-08T03:32:53;5.50;62.60
38325;DHT22;24126;52.672;13.622;2024-03-08T03:35:20;5.50;63.40
38325;DHT22;24126;52.672;13.622;2024-03-08T03:37:48;5.50;62.80
38325;DHT22;24126;52.672;13.622;2024-03-08T03:40:30;5.50;62.80
38325;DHT22;24126;52.672;13.622;2024-03-08T03:42:57;5.40;62.80
38325;DHT22;24126;52.672;13.622;2024-03-08T03:45:24;5.40;62.90
38325;DHT22;24126;52.672;13.622;2024-03-08T03:47:54;5.40;63.00
38325;DHT22;24126;52.672;13.622;2024-03-08T03:50:21;5.40;63.00
38325;DHT22;24126;52.672;13.622;2024-03-08T03:52:49;5.40;63.10
38325;DHT22;24126;52.672;13.622;2024-03-08T03:55:16;5.30;63.20
38325;DHT22;24126;52.672;13.622;2024-03-08T03:57:44;5.30;63.30
38325;DHT22;24126;52.672;13.622;2024-03-08T04:00:11;5.30;63.30
38325;DHT22;24126;52.672;13.622;2024-03-08T04:02:40;5.30;63.40
38325;DHT22;24126;52.672;13.622;2024-03-08T04:05:08;5.30;63.40
38325;DHT22;24126;52.672;13.622;2024-03-08T04:07:35;5.20;63.40
38325;DHT22;24126;52.672;13.622;2024-03-08T04:10:02;5.30;64.10
38325;DHT22;24126;52.672;13.622;2024-03-08T04:12:30;5.20;63.40
38325;DHT22;24126;52.672;13.622;2024-03-08T04:14:57;5.30;63.50
38325;DHT22;24126;52.672;13.622;2024-03-08T04:17:24;5.20;63.60
38325;DHT22;24126;52.672;13.622;2024-03-08T04:19:51;5.20;63.90
38325;DHT22;24126;52.672;13.622;2024-03-08T04:22:18;5.10;64.10
38325;DHT22;24126;52.672;13.622;2024-03-08T04:24:45;5.10;64.10
38325;DHT22;24126;52.672;13.622;2024-03-08T04:27:12;5.10;64.30
38325;DHT22;24126;52.672;13.622;2024-03-08T04:29:40;5.10;64.30
38325;DHT22;24126;52.672;13.622;2024-03-08T04:32:07;5.10;64.40
38325;DHT22;24126;52.672;13.622;2024-03-08T04:34:34;5.10;64.40
38325;DHT22;24126;52.672;13.622;2024-03-08T04:37:02;5.10;64.40
38325;DHT22;24126;52.672;13.622;2024-03-08T04:39:30;5.00;64.30
38325;DHT22;24126;52.672;13.622;2024-03-08T04:41:58;5.00;64.60
38325;DHT22;24126;52.672;13.622;2024-03-08T04:44:26;5.00;64.80
38325;DHT22;24126;52.672;13.622;2024-03-08T04:46:53;4.90;65.00
38325;DHT22;24126;52.672;13.622;2024-03-08T04:49:20;4.90;65.00
38325;DHT22;24126;52.672;13.622;2024-03-08T04:51:48;4.90;65.20
38325;DHT22;24126;52.672;13.622;2024-03-08T04:54:15;4.90;65.20
38325;DHT22;24126;52.672;13.622;2024-03-08T04:56:42;4.90;65.30
38325;DHT22;24126;52.672;13.622;2024-03-08T04:59:09;4.90;65.20
38325;DHT22;24126;52.672;13.622;2024-03-08T05:01:36;5.00;65.10
38325;DHT22;24126;52.672;13.622;2024-03-08T05:04:04;5.00;65.00
38325;DHT22;24126;52.672;13.622;2024-03-08T05:06:31;5.00;65.00
38325;DHT22;24126;52.672;13.622;2024-03-08T05:08:59;5.00;64.80
38325;DHT22;24126;52.672;13.622;2024-03-08T05:11:26;5.00;64.60
38325;DHT22;24126;52.672;13.622;2024-03-08T05:13:53;5.00;64.60
38325;DHT22;24126;52.672;13.622;2024-03-08T05:16:20;5.00;64.60
38325;DHT22;24126;52.672;13.622;2024-03-08T05:18:48;5.00;64.80
38325;DHT22;24126;52.672;13.622;2024-03-08T05:21:15;4.90;64.90
38325;DHT22;24126;52.672;13.622;2024-03-08T05:23:46;4.90;65.10
38325;DHT22;24126;52.672;13.622;2024-03-08T05:26:13;4.90;65.20
38325;DHT22;24126;52.672;13.622;2024-03-08T05:28:40;4.90;65.30
38325;DHT22;24126;52.672;13.622;2024-03-08T05:31:08;4.90;65.40
38325;DHT22;24126;52.672;13.622;2024-03-08T05:33:37;4.90;65.30
38325;DHT22;24126;52.672;13.622;2024-03-08T05:36:04;4.90;65.40
38325;DHT22;24126;52.672;13.622;2024-03-08T05:38:32;4.90;65.50
38325;DHT22;24126;52.672;13.622;2024-03-08T05:40:59;4.90;65.60
38325;DHT22;24126;52.672;13.622;2024-03-08T05:43:27;4.90;65.70
38325;DHT22;24126;52.672;13.622;2024-03-08T05:45:54;5.00;65.80
38325;DHT22;24126;52.672;13.622;2024-03-08T05:48:21;5.00;65.80
38325;DHT22;24126;52.672;13.622;2024-03-08T05:50:48;5.10;65.80
38325;DHT22;24126;52.672;13.622;2024-03-08T05:53:15;5.10;65.80
38325;DHT22;24126;52.672;13.622;2024-03-08T05:55:42;5.10;65.80
38325;DHT22;24126;52.672;13.622;2024-03-08T05:58:09;5.20;65.70
38325;DHT22;24126;52.672;13.622;2024-03-08T06:00:37;5.20;65.90
38325;DHT22;24126;52.672;13.622;2024-03-08T06:03:04;5.20;66.00
38325;DHT22;24126;52.672;13.622;2024-03-08T06:05:31;5.20;66.00
38325;DHT22;24126;52.672;13.622;2024-03-08T06:07:59;5.20;66.00
38325;DHT22;24126;52.672;13.622;2024-03-08T06:10:26;5.20;65.90
38325;DHT22;24126;52.672;13.622;2024-03-08T06:12:53;5.30;66.50
38325;DHT22;24126;52.672;13.622;2024-03-08T06:15:20;5.30;66.10
38325;DHT22;24126;52.672;13.622;2024-03-08T06:17:47;5.40;65.90
38325;DHT22;24126;52.672;13.622;2024-03-08T06:20:14;5.40;65.80
38325;DHT22;24126;52.672;13.622;2024-03-08T06:22:41;5.50;65.70
38325;DHT22;24126;52.672;13.622;2024-03-08T06:25:13;5.50;66.30
38325;DHT22;24126;52.672;13.622;2024-03-08T06:27:41;5.60;65.90
38325;DHT22;24126;52.672;13.622;2024-03-08T06:30:09;5.80;66.40
38325;DHT22;24126;52.672;13.622;2024-03-08T06:32:37;6.10;66.40
38325;DHT22;24126;52.672;13.622;2024-03-08T06:35:04;6.70;66.00
38325;DHT22;24126;52.672;13.622;2024-03-08T06:37:33;7.30;64.90
38325;DHT22;24126;52.672;13.622;2024-03-08T06:40:00;8.10;63.60
38325;DHT22;24126;52.672;13.622;2024-03-08T06:45:20;9.90;59.90
38325;DHT22;24126;52.672;13.622;2024-03-08T06:47:49;10.90;58.70
38325;DHT22;24126;52.672;13.622;2024-03-08T07:03:30;15.60;47.10
38325;DHT22;24126;52.672;13.622;2024-03-08T07:07:01;15.90;45.50
38325;DHT22;24126;52.672;13.622;2024-03-08T07:09:44;16.00;45.10
38325;DHT22;24126;52.672;13.622;2024-03-08T07:16:05;16.00;44.20
38325;DHT22;24126;52.672;13.622;2024-03-08T07:18:35;15.60;44.10
38325;DHT22;24126;52.672;13.622;2024-03-08T07:21:05;15.50;44.80
38325;DHT22;24126;52.672;13.622;2024-03-08T07:23:33;15.60;44.30
38325;DHT22;24126;52.672;13.622;2024-03-08T07:26:20;15.80;44.20
38325;DHT22;24126;52.672;13.622;2024-03-08T07:28:52;15.90;43.40
38325;DHT22;24126;52.672;13.622;2024-03-08T07:31:28;15.70;43.80
38325;DHT22;24126;52.672;13.622;2024-03-08T07:34:13;15.60;43.80
38325;DHT22;24126;52.672;13.622;2024-03-08T07:36:47;15.50;44.10
38325;DHT22;24126;52.672;13.622;2024-03-08T07:39:24;15.40;43.80
38325;DHT22;24126;52.672;13.622;2024-03-08T07:41:55;15.30;43.80
38325;DHT22;24126;52.672;13.622;2024-03-08T07:44:44;14.70;44.60
38325;DHT22;24126;52.672;13.622;2024-03-08T07:47:18;13.90;46.20
38325;DHT22;24126;52.672;13.622;2024-03-08T07:49:45;13.30;47.70
38325;DHT22;24126;52.672;13.622;2024-03-08T07:52:13;12.80;49.30
38325;DHT22;24126;52.672;13.622;2024-03-08T07:54:41;12.50;50.10
38325;DHT22;24126;52.672;13.622;2024-03-08T07:57:09;12.40;49.90
38325;DHT22;24126;52.672;13.622;2024-03-08T07:59:36;12.10;49.60
38325;DHT22;24126;52.672;13.622;2024-03-08T08:02:03;11.90;50.00
38325;DHT22;24126;52.672;13.622;2024-03-08T08:04:30;11.80;50.40
38325;DHT22;24126;52.672;13.622;2024-03-08T08:06:57;11.70;50.90
38325;DHT22;24126;52.672;13.622;2024-03-08T08:09:24;11.70;51.30
38325;DHT22;24126;52.672;13.622;2024-03-08T08:12:00;11.80;50.70
38325;DHT22;24126;52.672;13.622;2024-03-08T08:14:28;11.80;51.00
38325;DHT22;24126;52.672;13.622;2024-03-08T08:16:56;11.90;51.20
38325;DHT22;24126;52.672;13.622;2024-03-08T08:19:26;12.20;51.20
38325;DHT22;24126;52.672;13.622;2024-03-08T08:21:53;12.60;50.70
38325;DHT22;24126;52.672;13.622;2024-03-08T08:24:20;13.10;49.80
38325;DHT22;24126;52.672;13.622;2024-03-08T08:26:47;13.60;49.30
38325;DHT22;24126;52.672;13.622;2024-03-08T08:29:14;13.90;48.50
38325;DHT22;24126;52.672;13.622;2024-03-08T08:31:42;14.10;48.10
38325;DHT22;24126;52.672;13.622;2024-03-08T08:34:09;14.30;47.10
38325;DHT22;24126;52.672;13.622;2024-03-08T08:36:37;14.40;46.90
38325;DHT22;24126;52.672;13.622;2024-03-08T08:39:05;14.40;46.90
38325;DHT22;24126;52.672;13.622;2024-03-08T08:41:38;14.50;46.50
38325;DHT22;24126;52.672;13.622;2024-03-08T08:44:05;14.70;46.90
38325;DHT22;24126;52.672;13.622;2024-03-08T08:46:34;15.00;46.70
38325;DHT22;24126;52.672;13.622;2024-03-08T08:49:02;15.30;45.80
38325;DHT22;24126;52.672;13.622;2024-03-08T08:51:29;15.30;45.70
38325;DHT22;24126;52.672;13.622;2024-03-08T08:53:56;15.40;45.80
38325;DHT22;24126;52.672;13.622;2024-03-08T08:56:23;15.30;46.30
38325;DHT22;24126;52.672;13.622;2024-03-08T08:58:54;15.20;45.90
38325;DHT22;24126;52.672;13.622;2024-03-08T09:01:21;15.20;46.40
38325;DHT22;24126;52.672;13.622;2024-03-08T09:03:48;15.20;46.00
38325;DHT22;24126;52.672;13.622;2024-03-08T09:06:15;15.20;45.40
38325;DHT22;24126;52.672;13.622;2024-03-08T09:08:44;15.20;45.30
38325;DHT22;24126;52.672;13.622;2024-03-08T09:11:11;15.10;45.00
38325;DHT22;24126;52.672;13.622;2024-03-08T09:13:38;15.00;45.40
38325;DHT22;24126;52.672;13.622;2024-03-08T09:16:05;15.00;45.40
38325;DHT22;24126;52.672;13.622;2024-03-08T09:18:32;15.00;45.00
38325;DHT22;24126;52.672;13.622;2024-03-08T09:20:59;15.00;45.00
38325;DHT22;24126;52.672;13.622;2024-03-08T09:23:26;15.00;45.90
38325;DHT22;24126;52.672;13.622;2024-03-08T09:25:56;15.10;45.50
38325;DHT22;24126;52.672;13.622;2024-03-08T09:28:24;15.20;45.10
38325;DHT22;24126;52.672;13.622;2024-03-08T09:30:53;15.20;45.40
38325;DHT22;24126;52.672;13.622;2024-03-08T09:33:20;15.20;45.40
38325;DHT22;24126;52.672;13.622;2024-03-08T09:35:47;15.30;45.00
38325;DHT22;24126;52.672;13.622;2024-03-08T09:38:14;15.40;44.80
38325;DHT22;24126;52.672;13.622;2024-03-08T09:40:41;15.40;43.90
38325;DHT22;24126;52.672;13.622;2024-03-08T09:43:12;15.30;43.70
38325;DHT22;24126;52.672;13.622;2024-03-08T09:45:39;15.00;43.60
38325;DHT22;24126;52.672;13.622;2024-03-08T09:48:09;14.90;44.00
38325;DHT22;24126;52.672;13.622;2024-03-08T09:50:38;14.70;44.50
38325;DHT22;24126;52.672;13.622;2024-03-08T09:53:07;14.50;44.60
38325;DHT22;24126;52.672;13.622;2024-03-08T09:55:35;14.40;44.70
38325;DHT22;24126;52.672;13.622;2024-03-08T09:58:02;14.30;44.90
38325;DHT22;24126;52.672;13.622;2024-03-08T10:01:02;14.30;44.80
38325;DHT22;24126;52.672;13.622;2024-03-08T10:03:30;14.20;44.60
38325;DHT22;24126;52.672;13.622;2024-03-08T10:05:58;14.20;45.10
38325;DHT22;24126;52.672;13.622;2024-03-08T10:08:27;14.40;44.90
38325;DHT22;24126;52.672;13.622;2024-03-08T10:10:58;14.50;44.80
38325;DHT22;24126;52.672;13.622;2024-03-08T10:13:25;14.60;44.10
38325;DHT22;24126;52.672;13.622;2024-03-08T10:15:54;14.70;45.50
38325;DHT22;24126;52.672;13.622;2024-03-08T10:18:21;14.80;44.90
38325;DHT22;24126;52.672;13.622;2024-03-08T10:21:07;15.00;44.50
38325;DHT22;24126;52.672;13.622;2024-03-08T10:23:35;15.20;43.90
38325;DHT22;24126;52.672;13.622;2024-03-08T10:26:12;15.30;43.90
38325;DHT22;24126;52.672;13.622;2024-03-08T10:28:44;15.40;43.50
38325;DHT22;24126;52.672;13.622;2024-03-08T10:31:11;15.40;43.00
38325;DHT22;24126;52.672;13.622;2024-03-08T10:33:39;15.40;43.30
38325;DHT22;24126;52.672;13.622;2024-03-08T10:36:06;15.50;43.30
38325;DHT22;24126;52.672;13.622;2024-03-08T10:38:34;15.60;43.30
38325;DHT22;24126;52.672;13.622;2024-03-08T10:41:02;15.70;43.10
38325;DHT22;24126;52.672;13.622;2024-03-08T10:43:31;15.70;42.20
38325;DHT22;24126;52.672;13.622;2024-03-08T10:46:06;15.60;42.50
38325;DHT22;24126;52.672;13.622;2024-03-08T10:48:44;15.50;42.40
38325;DHT22;24126;52.672;13.622;2024-03-08T10:51:12;15.50;41.80
38325;DHT22;24126;52.672;13.622;2024-03-08T10:53:39;15.40;41.70
38325;DHT22;24126;52.672;13.622;2024-03-08T10:56:07;15.20;42.60
38325;DHT22;24126;52.672;13.622;2024-03-08T10:58:35;15.10;42.40
38325;DHT22;24126;52.672;13.622;2024-03-08T11:01:04;15.00;42.50
38325;DHT22;24126;52.672;13.622;2024-03-08T11:06:16;15.00;42.70
38325;DHT22;24126;52.672;13.622;2024-03-08T11:08:45;15.00;42.80
38325;DHT22;24126;52.672;13.622;2024-03-08T11:11:34;14.90;42.70
38325;DHT22;24126;52.672;13.622;2024-03-08T11:14:01;15.00;42.60
38325;DHT22;24126;52.672;13.622;2024-03-08T11:19:00;15.10;43.00
38325;DHT22;24126;52.672;13.622;2024-03-08T11:21:30;15.10;42.10
38325;DHT22;24126;52.672;13.622;2024-03-08T11:23:59;15.10;42.60
38325;DHT22;24126;52.672;13.622;2024-03-08T11:26:27;15.20;42.70
38325;DHT22;24126;52.672;13.622;2024-03-08T11:28:54;15.10;41.40
38325;DHT22;24126;52.672;13.622;2024-03-08T11:31:22;15.00;41.80
38325;DHT22;24126;52.672;13.622;2024-03-08T11:33:49;14.90;41.80
38325;DHT22;24126;52.672;13.622;2024-03-08T11:36:20;14.80;42.20
38325;DHT22;24126;52.672;13.622;2024-03-08T11:38:48;14.80;42.30
38325;DHT22;24126;52.672;13.622;2024-03-08T11:41:16;14.80;43.00
38325;DHT22;24126;52.672;13.622;2024-03-08T11:43:46;14.80;42.50
38325;DHT22;24126;52.672;13.622;2024-03-08T11:46:13;14.90;42.80
38325;DHT22;24126;52.672;13.622;2024-03-08T11:48:41;14.80;42.70
38325;DHT22;24126;52.672;13.622;2024-03-08T11:51:08;14.80;42.40
38325;DHT22;24126;52.672;13.622;2024-03-08T11:53:38;14.70;42.30
38325;DHT22;24126;52.672;13.622;2024-03-08T11:56:08;14.70;42.70
38325;DHT22;24126;52.672;13.622;2024-03-08T11:58:37;14.70;42.80
38325;DHT22;24126;52.672;13.622;2024-03-08T12:01:04;14.60;42.90
38325;DHT22;24126;52.672;13.622;2024-03-08T12:03:33;14.60;42.90
38325;DHT22;24126;52.672;13.622;2024-03-08T12:06:00;14.60;42.90
38325;DHT22;24126;52.672;13.622;2024-03-08T12:08:32;14.60;42.40
38325;DHT22;24126;52.672;13.622;2024-03-08T12:10:59;14.60;42.70
38325;DHT22;24126;52.672;13.622;2024-03-08T12:13:27;14.60;43.20
38325;DHT22;24126;52.672;13.622;2024-03-08T12:15:56;14.70;43.00
38325;DHT22;24126;52.672;13.622;2024-03-08T12:18:25;14.50;42.10
38325;DHT22;24126;52.672;13.622;2024-03-08T12:21:12;14.50;42.80
38325;DHT22;24126;52.672;13.622;2024-03-08T12:23:43;14.50;42.80
38325;DHT22;24126;52.672;13.622;2024-03-08T12:26:24;14.50;42.50
38325;DHT22;24126;52.672;13.622;2024-03-08T12:28:52;14.60;42.10
38325;DHT22;24126;52.672;13.622;2024-03-08T12:31:19;14.60;42.70
38325;DHT22;24126;52.672;13.622;2024-03-08T12:33:48;14.70;42.00
38325;DHT22;24126;52.672;13.622;2024-03-08T12:36:16;14.70;42.90
38325;DHT22;24126;52.672;13.622;2024-03-08T12:38:46;14.70;42.00
38325;DHT22;24126;52.672;13.622;2024-03-08T12:41:17;14.70;41.90
38325;DHT22;24126;52.672;13.622;2024-03-08T12:43:45;14.70;42.20
38325;DHT22;24126;52.672;13.622;2024-03-08T12:46:14;14.70;41.80
38325;DHT22;24126;52.672;13.622;2024-03-08T12:48:42;14.70;42.60
38325;DHT22;24126;52.672;13.622;2024-03-08T12:51:13;14.70;41.40
38325;DHT22;24126;52.672;13.622;2024-03-08T12:53:42;14.60;41.30
38325;DHT22;24126;52.672;13.622;2024-03-08T12:56:10;14.50;41.60
38325;DHT22;24126;52.672;13.622;2024-03-08T12:58:37;14.60;42.00
38325;DHT22;24126;52.672;13.622;2024-03-08T13:01:05;14.60;41.50
38325;DHT22;24126;52.672;13.622;2024-03-08T13:03:33;14.60;41.70
38325;DHT22;24126;52.672;13.622;2024-03-08T13:06:04;14.50;41.40
38325;DHT22;24126;52.672;13.622;2024-03-08T13:08:34;14.50;41.80
38325;DHT22;24126;52.672;13.622;2024-03-08T13:11:05;14.50;42.10
38325;DHT22;24126;52.672;13.622;2024-03-08T13:13:33;14.40;42.00
38325;DHT22;24126;52.672;13.622;2024-03-08T13:16:01;14.30;42.30
38325;DHT22;24126;52.672;13.622;2024-03-08T13:18:29;14.30;42.50
38325;DHT22;24126;52.672;13.622;2024-03-08T13:20:56;14.20;42.50
38325;DHT22;24126;52.672;13.622;2024-03-08T13:23:23;14.20;42.80
38325;DHT22;24126;52.672;13.622;2024-03-08T13:25:50;14.20;42.30
38325;DHT22;24126;52.672;13.622;2024-03-08T13:28:17;14.20;42.40
38325;DHT22;24126;52.672;13.622;2024-03-08T13:30:48;14.20;43.30
38325;DHT22;24126;52.672;13.622;2024-03-08T13:33:15;14.20;42.50
38325;DHT22;24126;52.672;13.622;2024-03-08T13:35:42;14.10;43.00
38325;DHT22;24126;52.672;13.622;2024-03-08T13:38:10;14.00;42.90
38325;DHT22;24126;52.672;13.622;2024-03-08T13:40:39;13.90;43.00
38325;DHT22;24126;52.672;13.622;2024-03-08T13:43:06;13.90;43.40
38325;DHT22;24126;52.672;13.622;2024-03-08T13:45:34;13.90;43.90
38325;DHT22;24126;52.672;13.622;2024-03-08T13:48:08;14.00;43.70
38325;DHT22;24126;52.672;13.622;2024-03-08T13:50:38;14.00;43.40
38325;DHT22;24126;52.672;13.622;2024-03-08T13:53:05;14.00;43.60
38325;DHT22;24126;52.672;13.622;2024-03-08T13:55:33;13.90;43.70
38325;DHT22;24126;52.672;13.622;2024-03-08T13:58:00;13.90;43.70
38325;DHT22;24126;52.672;13.622;2024-03-08T14:00:28;13.90;43.70
38325;DHT22;24126;52.672;13.622;2024-03-08T14:02:59;13.90;43.80
38325;DHT22;24126;52.672;13.622;2024-03-08T14:05:26;13.90;43.70
38325;DHT22;24126;52.672;13.622;2024-03-08T14:07:53;13.90;43.60
38325;DHT22;24126;52.672;13.622;2024-03-08T14:10:21;13.90;43.80
38325;DHT22;24126;52.672;13.622;2024-03-08T14:12:49;13.90;43.90
38325;DHT22;24126;52.672;13.622;2024-03-08T14:15:16;14.00;43.40
38325;DHT22;24126;52.672;13.622;2024-03-08T14:17:43;14.00;44.30
38325;DHT22;24126;52.672;13.622;2024-03-08T14:20:12;14.00;43.50
38325;DHT22;24126;52.672;13.622;2024-03-08T14:22:39;14.00;43.70
38325;DHT22;24126;52.672;13.622;2024-03-08T14:25:06;13.90;43.50
38325;DHT22;24126;52.672;13.622;2024-03-08T14:27:45;13.80;43.90
38325;DHT22;24126;52.672;13.622;2024-03-08T14:30:13;13.60;44.10
38325;DHT22;24126;52.672;13.622;2024-03-08T14:32:44;13.50;44.50
38325;DHT22;24126;52.672;13.622;2024-03-08T14:35:13;13.50;44.70
38325;DHT22;24126;52.672;13.622;2024-03-08T14:37:41;13.50;44.50
38325;DHT22;24126;52.672;13.622;2024-03-08T14:40:09;13.60;44.80
38325;DHT22;24126;52.672;13.622;2024-03-08T14:42:36;13.60;44.60
38325;DHT22;24126;52.672;13.622;2024-03-08T14:45:03;13.60;44.40
38325;DHT22;24126;52.672;13.622;2024-03-08T14:47:31;13.60;44.50
38325;DHT22;24126;52.672;13.622;2024-03-08T14:50:00;13.60;44.30
38325;DHT22;24126;52.672;13.622;2024-03-08T14:52:27;13.60;45.00
38325;DHT22;24126;52.672;13.622;2024-03-08T14:54:54;13.50;44.10
38325;DHT22;24126;52.672;13.622;2024-03-08T14:57:21;13.50;44.60
38325;DHT22;24126;52.672;13.622;2024-03-08T14:59:48;13.50;44.40
38325;DHT22;24126;52.672;13.622;2024-03-08T15:02:16;13.50;44.30
38325;DHT22;24126;52.672;13.622;2024-03-08T15:04:46;13.50;44.30
38325;DHT22;24126;52.672;13.622;2024-03-08T15:07:18;13.50;44.20
38325;DHT22;24126;52.672;13.622;2024-03-08T15:09:45;13.50;43.80
38325;DHT22;24126;52.672;13.622;2024-03-08T15:12:14;13.50;43.90
38325;DHT22;24126;52.672;13.622;2024-03-08T15:14:41;13.40;43.80
38325;DHT22;24126;52.672;13.622;2024-03-08T15:17:09;13.40;44.00
38325;DHT22;24126;52.672;13.622;2024-03-08T15:19:43;13.40;43.70
38325;DHT22;24126;52.672;13.622;2024-03-08T15:22:10;13.30;43.60
38325;DHT22;24126;52.672;13.622;2024-03-08T15:24:38;13.30;43.70
38325;DHT22;24126;52.672;13.622;2024-03-08T15:27:04;13.30;44.00
38325;DHT22;24126;52.672;13.622;2024-03-08T15:29:32;13.30;43.80
38325;DHT22;24126;52.672;13.622;2024-03-08T15:32:01;13.30;43.50
38325;DHT22;24126;52.672;13.622;2024-03-08T15:34:29;13.30;43.40
38325;DHT22;24126;52.672;13.622;2024-03-08T15:36:57;13.20;43.00
38325;DHT22;24126;52.672;13.622;2024-03-08T15:39:28;13.20;43.00
38325;DHT22;24126;52.672;13.622;2024-03-08T15:41:59;13.10;43.40
38325;DHT22;24126;52.672;13.622;2024-03-08T15:44:26;13.10;43.30
38325;DHT22;24126;52.672;13.622;2024-03-08T15:46:54;13.10;43.10
38325;DHT22;24126;52.672;13.622;2024-03-08T15:49:21;13.10;43.20
38325;DHT22;24126;52.672;13.622;2024-03-08T15:51:50;13.10;43.30
38325;DHT22;24126;52.672;13.622;2024-03-08T15:54:17;13.00;43.10
38325;DHT22;24126;52.672;13.622;2024-03-08T15:56:44;12.90;43.20